Castine, ME (04420)

4:47 PM EDT on July 07, 2015 (GMT -0400)
Dunbar Road | | Change Station
CLOSE
Current Station
Personal Weather Station
Location: Penobscot, ME
Elevation: 78 ft
Nearby Weather Stations

Elev 78 ft 44.43 °N, 68.76 °W | Updated 32 seconds ago

Clear
Clear
67.8 °F
Feels Like 67.8 °F
N
1.0
Wind Variable Wind from SSW
Gusts 4.0 mph

Today
High -- | Low -- °F
--% Chance of Precip.
Yesterday
High -- | Low -- °F
Precip. -- in
4:58 AM 8:21 PM
Waning Gibbous, 61% visible
Pressure 30.05 in
Visibility 10.0 miles
Clouds Mostly Cloudy 3500 ft
Overcast 4100 ft
Dew Point 62 °F
Humidity 83%
Rainfall 0.00 in
Snow Depth Not available.
UV 1.2 out of 12
Pollen 4.30 out of 12
Air Quality Not available.
Flu Activity Not available.
METAR KBHB 072035Z AUTO 21009KT 10SM BKN035 OVC041 20/18 A3005 RMK AO1

More Conditions Fewer Conditions

Pressure 30.05 in
Visibility 10.0 miles
Clouds Mostly Cloudy 3500 ft
Overcast 4100 ft
Dew Point 62 °F
Humidity 83%
Rainfall 0.00 in
Snow Depth Not available.
UV 1.2 out of 12
Pollen 4.30 out of 12
Air Quality Not available.
Flu Activity Not available.
METAR KBHB 072035Z AUTO 21009KT 10SM BKN035 OVC041 20/18 A3005 RMK AO1

More Conditions Fewer Conditions

10-Day Weather Forecast

×

Almanac

Astronomy

Jul. 07, 2015 Rise Set
Actual Time
Civil Twilight
Nautical Twilight
Astronomical Twilight
Moon
Length of Visible Light
Length of Day
Tomorrow will be .
, % of the Moon is Illuminated

Today's Extremes

State Highs State Lows

Community

WunderPhotos

Upload Photos

1,835,890 photos uploaded!

WunderBlogs® & News

Nearby

Air Quality

  Air Quality AQ Index Pollutant
Not available.

Snow Depth

Station Depth Elevation

Earthquake Activity

City Distance Mag. Time & Date
Minimum magnitude displayed is 2.5.

Coastal Water Temperatures

Place Temperature

Stations

Nearby Weather Stations

Station Location Temp. Windchill Dew Point Humidity Wind Precip. Elev Updated Type